• Join FlightAware (Why Join?)
  • Login
  • US Flag 
05:50PM EST


 

Airport Tracker/Info


-or-


 

Live Flight TrackerFlight Track Log ✈ ASQ4623 ✈ 10-May-2013 ✈ KCLE - CYUL

Flight Track Log - Related Links

Times and Time Zones

All times are in EDT time to prevent confusion due to time zone crossing. See the ASQ4623 flight status page for this flight to view local times or setup timezone preferences in your user account.

Time Position Orientation Groundspeed Altitude Reporting Facility
EDT Latitude Longitude Course Direction KTS MPH feet Rate Location/Type
04:29PM 41.3939 -81.8786 278° West 161 185 1,900  Level Cleveland Center
04:30PM 41.3958 -81.8978 278° West 168 193 2,600 1,800 Climbing Cleveland Center
04:31PM 41.4658 -81.9797 319° Northwest 277 319 5,300 2,040 Climbing Cleveland Center
04:32PM 41.5342 -82.0117 341° North 266 306 7,900 2,280 Climbing Cleveland Center
04:33PM 41.6033 -81.9772 20° North 258 297 9,900 1,800 Climbing Cleveland Center
04:34PM 41.6567 -81.8728 56° Northeast 265 305 11,500 1,320 Climbing Cleveland Center
04:35PM 41.7469 -81.8217 23° Northeast 308 354 12,600 1,080 Climbing Cleveland Center
04:36PM 41.8453 -81.7733 20° North 354 407 13,700 1,200 Climbing Cleveland Center
04:37PM 41.9458 -81.7222 21° North 382 440 15,100 1,380 Climbing Cleveland Center
04:38PM 42.0486 -81.6708 20° North 388 447 16,500 1,260 Climbing Cleveland Center
04:39PM 42.1492 -81.6139 23° Northeast 388 447 17,700 1,200 Climbing Cleveland Center
04:40PM 42.2375 -81.5142 40° Northeast 393 452 19,000 1,140 Climbing Cleveland Center
04:41PM 42.3133 -81.4172 43° Northeast 407 468 20,000 1,200 Climbing Cleveland Center
04:42PM 42.3997 -81.3031 44° Northeast 422 486 21,400 1,320 Climbing Cleveland Center
04:43PM 42.4878 -81.1942 42° Northeast 429 494 22,700 1,260 Climbing Cleveland Center
04:44PM 42.5758 -81.0822 43° Northeast 429 494 24,000 1,200 Climbing Cleveland Center
04:45PM 42.6658 -80.9614 45° Northeast 436 502 25,200 1,140 Climbing Cleveland Center
04:46PM 42.7517 -80.8489 44° Northeast 431 496 26,300 1,140 Climbing Cleveland Center
04:48PM 42.9000 -80.6333 47° Northeast 440 506 28,200 1,140 Climbing Toronto Center
04:49PM 42.9833 -80.5167 46° Northeast 440 506 29,400 1,140 Climbing Toronto Center
04:50PM 43.0667 -80.3833 49° Northeast 450 518 30,500 1,020 Climbing Toronto Center
04:51PM 43.1667 -80.2667 40° Northeast 450 518 31,500 1,020 Climbing Toronto Center
04:52PM 43.2500 -80.1667 41° Northeast 460 529 32,600 720 Climbing Toronto Center
04:53PM 43.3500 -80.0167 47° Northeast 470 541 33,000 180 Climbing Toronto Center
04:54PM 43.4500 -79.8833 44° Northeast 500 575 33,000  Level Toronto Center
04:55PM 43.5500 -79.7500 44° Northeast 520 598 33,000  Level Toronto Center
04:56PM 43.6500 -79.6167 44° Northeast 530 610 33,000  Level Toronto Center
04:57PM 43.6833 -79.4000 78° East 530 610 33,000  Level Toronto Center
04:58PM 43.7333 -79.2167 69° East 510 587 33,000  Level Toronto Center
04:59PM 43.7667 -79.0333 76° East 510 587 33,000  Level Toronto Center
05:00PM 43.8000 -78.8500 76° East 520 598 33,000  Level Toronto Center
05:01PM 43.8500 -78.6333 72° East 530 610 33,000  Level Toronto Center
05:02PM 43.8833 -78.4500 76° East 540 621 33,000  Level Toronto Center
05:03PM 43.9667 -78.2500 60° Northeast 540 621 33,000  Level Toronto Center
05:04PM 44.0167 -78.0833 67° East 540 621 33,000  Level Toronto Center
05:05PM 44.0833 -77.8667 67° East 530 610 33,000  Level Toronto Center
05:06PM 44.1500 -77.7000 61° Northeast 530 610 33,000  Level Toronto Center
05:07PM 44.2167 -77.5167 63° Northeast 530 610 33,000  Level Toronto Center
05:08PM 44.2667 -77.3333 69° East 530 610 33,000  Level Toronto Center
05:09PM 44.3333 -77.1167 67° East 530 610 33,000  Level Toronto Center
05:10PM 44.3833 -76.9500 67° East 530 610 33,000  Level Toronto Center
05:10PM 44.4333 -76.8667 50° Northeast 530 610 33,000  Level Montreal Center
05:11PM 44.4833 -76.6667 71° East 520 598 33,000  Level Montreal Center
05:12PM 44.5500 -76.4833 63° Northeast 520 598 33,000  Level Montreal Center
05:13PM 44.6000 -76.3000 69° East 520 598 33,000 -120 Level Montreal Center
05:14PM 44.6667 -76.1167 63° Northeast 510 587 32,800 -780 Descending Montreal Center
05:15PM 44.7167 -75.9500 67° East 500 575 31,500 -1,860 Descending Montreal Center
05:16PM 44.7667 -75.7833 67° East 490 564 29,100 -2,640 Descending Montreal Center
05:17PM 44.8333 -75.5833 65° Northeast 490 564 26,300 -2,580 Descending Montreal Center
05:18PM 44.8833 -75.4167 67° East 480 552 24,000 -2,520 Descending Montreal Center
05:19PM 44.9333 -75.2667 65° Northeast 460 529 21,300 -2,400 Descending Montreal Center
05:20PM 44.9833 -75.1000 67° East 450 518 19,200 -2,400 Descending Montreal Center
05:21PM 45.0333 -74.9333 67° East 440 506 16,600 -2,340 Descending Montreal Center
05:22PM 45.0833 -74.7833 65° Northeast 420 483 14,600 -2,100 Descending Montreal Center
05:23PM 45.1333 -74.6333 65° Northeast 400 460 12,400 -2,100 Descending Montreal Center
05:24PM 45.1667 -74.5167 68° East 370 426 10,500 -1,860 Descending Montreal Center
05:25PM 45.2000 -74.4000 68° East 300 345 8,700 -1,560 Descending Montreal Center
05:26PM 45.2333 -74.2833 68° East 280 322 7,400 -1,140 Descending Montreal Center
05:27PM 45.2500 -74.1833 77° East 260 299 6,500 -720 Descending Montreal Center
05:28PM 45.2167 -74.0833 115° Southeast 230 265 6,000 -300 Descending Montreal Center
05:29PM 45.2333 -74.0167 70° East 220 253 5,900 -720 Descending Montreal Center
05:30PM 45.2833 -73.9667 35° Northeast 210 242 4,600 -1,140 Descending Montreal Center
05:31PM 45.3333 -73.9167 35° Northeast 190 219 3,700 -1,080 Descending Montreal Center
05:32PM 45.3667 -73.8667 46° Northeast 160 184 2,500 -1,020 Descending Montreal Center
05:33PM 45.3833 -73.8167 65° Northeast 140 161 1,700 -780 Descending Montreal Center
05:34PM 45.4167 -73.8000 19° North 130 150 1,000 -660 Descending Montreal Center
05:35PM 45.4333 -73.7667 55° Northeast 120 138 400 -600 Descending Montreal Center